sensor_id;sensor_type;location;lat;lon;timestamp;temperature;humidity
8231;DHT22;4156;50.908;6.974;2023-12-07T00:01:09;4.70;99.90
8231;DHT22;4156;50.908;6.974;2023-12-07T00:03:34;4.70;99.90
8231;DHT22;4156;50.908;6.974;2023-12-07T00:06:00;4.70;99.90
8231;DHT22;4156;50.908;6.974;2023-12-07T00:08:26;4.60;99.90
8231;DHT22;4156;50.908;6.974;2023-12-07T00:10:51;4.70;99.90
8231;DHT22;4156;50.908;6.974;2023-12-07T00:13:17;4.70;99.90
8231;DHT22;4156;50.908;6.974;2023-12-07T00:15:43;4.70;99.90
8231;DHT22;4156;50.908;6.974;2023-12-07T00:18:09;4.60;99.90
8231;DHT22;4156;50.908;6.974;2023-12-07T00:20:35;4.60;99.90
8231;DHT22;4156;50.908;6.974;2023-12-07T00:23:00;4.60;99.90
8231;DHT22;4156;50.908;6.974;2023-12-07T00:25:26;4.50;99.90
8231;DHT22;4156;50.908;6.974;2023-12-07T00:27:51;4.60;99.90
8231;DHT22;4156;50.908;6.974;2023-12-07T00:30:17;4.60;99.90
8231;DHT22;4156;50.908;6.974;2023-12-07T00:32:43;4.60;99.90
8231;DHT22;4156;50.908;6.974;2023-12-07T00:35:09;4.60;99.90
8231;DHT22;4156;50.908;6.974;2023-12-07T00:37:35;4.50;99.90
8231;DHT22;4156;50.908;6.974;2023-12-07T00:40:01;4.60;99.90
8231;DHT22;4156;50.908;6.974;2023-12-07T00:42:27;4.50;99.90
8231;DHT22;4156;50.908;6.974;2023-12-07T00:44:53;4.40;99.90
8231;DHT22;4156;50.908;6.974;2023-12-07T00:47:19;4.40;99.90
8231;DHT22;4156;50.908;6.974;2023-12-07T00:49:44;4.50;99.90
8231;DHT22;4156;50.908;6.974;2023-12-07T00:52:10;4.40;99.90
8231;DHT22;4156;50.908;6.974;2023-12-07T00:54:35;4.40;99.90
8231;DHT22;4156;50.908;6.974;2023-12-07T00:57:01;4.40;99.90
8231;DHT22;4156;50.908;6.974;2023-12-07T00:59:26;4.40;99.90
8231;DHT22;4156;50.908;6.974;2023-12-07T01:01:52;4.40;99.90
8231;DHT22;4156;50.908;6.974;2023-12-07T01:04:17;4.40;99.90
8231;DHT22;4156;50.908;6.974;2023-12-07T01:06:43;4.30;99.90
8231;DHT22;4156;50.908;6.974;2023-12-07T01:09:09;4.30;99.90
8231;DHT22;4156;50.908;6.974;2023-12-07T01:11:39;4.40;99.90
8231;DHT22;4156;50.908;6.974;2023-12-07T01:14:05;4.40;99.90
8231;DHT22;4156;50.908;6.974;2023-12-07T01:16:31;4.30;99.90
8231;DHT22;4156;50.908;6.974;2023-12-07T01:18:56;4.40;99.90
8231;DHT22;4156;50.908;6.974;2023-12-07T01:21:23;4.50;99.90
8231;DHT22;4156;50.908;6.974;2023-12-07T01:23:49;4.50;99.90
8231;DHT22;4156;50.908;6.974;2023-12-07T01:26:14;4.40;99.90
8231;DHT22;4156;50.908;6.974;2023-12-07T01:28:40;4.30;99.90
8231;DHT22;4156;50.908;6.974;2023-12-07T01:31:05;4.30;99.90
8231;DHT22;4156;50.908;6.974;2023-12-07T01:33:31;4.30;99.90
8231;DHT22;4156;50.908;6.974;2023-12-07T01:35:57;4.20;99.90
8231;DHT22;4156;50.908;6.974;2023-12-07T01:38:22;4.20;99.90
8231;DHT22;4156;50.908;6.974;2023-12-07T01:40:48;4.20;99.90
8231;DHT22;4156;50.908;6.974;2023-12-07T01:43:14;4.20;99.90
8231;DHT22;4156;50.908;6.974;2023-12-07T01:45:39;4.20;99.90
8231;DHT22;4156;50.908;6.974;2023-12-07T01:48:06;4.30;99.90
8231;DHT22;4156;50.908;6.974;2023-12-07T01:50:32;4.10;99.90
8231;DHT22;4156;50.908;6.974;2023-12-07T01:53:01;4.10;99.90
8231;DHT22;4156;50.908;6.974;2023-12-07T01:55:27;4.20;99.90
8231;DHT22;4156;50.908;6.974;2023-12-07T01:57:54;4.20;99.90
8231;DHT22;4156;50.908;6.974;2023-12-07T02:00:20;4.20;99.90
8231;DHT22;4156;50.908;6.974;2023-12-07T02:02:47;4.20;99.90
8231;DHT22;4156;50.908;6.974;2023-12-07T02:05:13;4.20;99.90
8231;DHT22;4156;50.908;6.974;2023-12-07T02:07:41;4.10;99.90
8231;DHT22;4156;50.908;6.974;2023-12-07T02:10:07;4.10;99.90
8231;DHT22;4156;50.908;6.974;2023-12-07T02:12:33;4.10;99.90
8231;DHT22;4156;50.908;6.974;2023-12-07T02:15:00;4.10;99.90
8231;DHT22;4156;50.908;6.974;2023-12-07T02:17:41;4.00;99.90
8231;DHT22;4156;50.908;6.974;2023-12-07T02:20:21;4.10;99.90
8231;DHT22;4156;50.908;6.974;2023-12-07T02:23:01;4.00;99.90
8231;DHT22;4156;50.908;6.974;2023-12-07T02:25:43;4.10;99.90
8231;DHT22;4156;50.908;6.974;2023-12-07T02:28:09;4.10;99.90
8231;DHT22;4156;50.908;6.974;2023-12-07T02:30:35;4.10;99.90
8231;DHT22;4156;50.908;6.974;2023-12-07T02:33:01;4.10;99.90
8231;DHT22;4156;50.908;6.974;2023-12-07T02:35:27;4.10;99.90
8231;DHT22;4156;50.908;6.974;2023-12-07T02:37:53;4.10;99.90
8231;DHT22;4156;50.908;6.974;2023-12-07T02:40:23;4.20;99.90
8231;DHT22;4156;50.908;6.974;2023-12-07T02:42:50;4.20;99.90
8231;DHT22;4156;50.908;6.974;2023-12-07T02:45:16;4.10;99.90
8231;DHT22;4156;50.908;6.974;2023-12-07T02:47:42;4.10;99.90
8231;DHT22;4156;50.908;6.974;2023-12-07T02:50:11;4.10;99.90
8231;DHT22;4156;50.908;6.974;2023-12-07T02:52:37;4.10;99.90
8231;DHT22;4156;50.908;6.974;2023-12-07T02:55:03;4.10;99.90
8231;DHT22;4156;50.908;6.974;2023-12-07T02:57:30;4.20;99.90
8231;DHT22;4156;50.908;6.974;2023-12-07T02:59:56;4.20;99.90
8231;DHT22;4156;50.908;6.974;2023-12-07T03:02:22;4.20;99.90
8231;DHT22;4156;50.908;6.974;2023-12-07T03:04:47;4.20;99.90
8231;DHT22;4156;50.908;6.974;2023-12-07T03:07:13;4.20;99.90
8231;DHT22;4156;50.908;6.974;2023-12-07T03:09:38;4.20;99.90
8231;DHT22;4156;50.908;6.974;2023-12-07T03:12:04;4.20;99.90
8231;DHT22;4156;50.908;6.974;2023-12-07T03:14:30;4.20;99.90
8231;DHT22;4156;50.908;6.974;2023-12-07T03:16:56;4.20;99.90
8231;DHT22;4156;50.908;6.974;2023-12-07T03:19:21;4.30;99.90
8231;DHT22;4156;50.908;6.974;2023-12-07T03:21:47;4.30;99.90
8231;DHT22;4156;50.908;6.974;2023-12-07T03:24:12;4.20;99.90
8231;DHT22;4156;50.908;6.974;2023-12-07T03:26:38;4.30;99.90
8231;DHT22;4156;50.908;6.974;2023-12-07T03:29:03;4.30;99.90
8231;DHT22;4156;50.908;6.974;2023-12-07T03:31:29;4.30;99.90
8231;DHT22;4156;50.908;6.974;2023-12-07T03:33:55;4.30;99.90
8231;DHT22;4156;50.908;6.974;2023-12-07T03:36:21;4.30;99.90
8231;DHT22;4156;50.908;6.974;2023-12-07T03:38:47;4.20;99.90
8231;DHT22;4156;50.908;6.974;2023-12-07T03:41:13;4.20;99.90
8231;DHT22;4156;50.908;6.974;2023-12-07T03:43:38;4.30;99.90
8231;DHT22;4156;50.908;6.974;2023-12-07T03:46:05;4.30;99.90
8231;DHT22;4156;50.908;6.974;2023-12-07T03:48:32;4.40;99.90
8231;DHT22;4156;50.908;6.974;2023-12-07T03:50:57;4.40;99.90
8231;DHT22;4156;50.908;6.974;2023-12-07T03:53:23;4.40;99.90
8231;DHT22;4156;50.908;6.974;2023-12-07T03:55:48;4.40;99.90
8231;DHT22;4156;50.908;6.974;2023-12-07T03:58:14;4.40;99.90
8231;DHT22;4156;50.908;6.974;2023-12-07T04:00:40;4.30;99.90
8231;DHT22;4156;50.908;6.974;2023-12-07T04:03:05;4.30;99.90
8231;DHT22;4156;50.908;6.974;2023-12-07T04:05:32;4.30;99.90
8231;DHT22;4156;50.908;6.974;2023-12-07T04:07:58;4.30;99.90
8231;DHT22;4156;50.908;6.974;2023-12-07T04:10:24;4.40;99.90
8231;DHT22;4156;50.908;6.974;2023-12-07T04:12:49;4.40;99.90
8231;DHT22;4156;50.908;6.974;2023-12-07T04:15:18;4.40;99.90
8231;DHT22;4156;50.908;6.974;2023-12-07T04:17:43;4.40;99.90
8231;DHT22;4156;50.908;6.974;2023-12-07T04:20:09;4.30;99.90
8231;DHT22;4156;50.908;6.974;2023-12-07T04:22:35;4.30;99.90
8231;DHT22;4156;50.908;6.974;2023-12-07T04:25:01;4.30;99.90
8231;DHT22;4156;50.908;6.974;2023-12-07T04:27:26;4.40;99.90
8231;DHT22;4156;50.908;6.974;2023-12-07T04:29:52;4.30;99.90
8231;DHT22;4156;50.908;6.974;2023-12-07T04:32:17;4.30;99.90
8231;DHT22;4156;50.908;6.974;2023-12-07T04:34:43;4.30;99.90
8231;DHT22;4156;50.908;6.974;2023-12-07T04:37:08;4.30;99.90
8231;DHT22;4156;50.908;6.974;2023-12-07T04:39:35;4.30;99.90
8231;DHT22;4156;50.908;6.974;2023-12-07T04:42:01;4.40;99.90
8231;DHT22;4156;50.908;6.974;2023-12-07T04:44:26;4.40;99.90
8231;DHT22;4156;50.908;6.974;2023-12-07T04:46:52;4.30;99.90
8231;DHT22;4156;50.908;6.974;2023-12-07T04:49:18;4.30;99.90
8231;DHT22;4156;50.908;6.974;2023-12-07T04:51:44;4.30;99.90
8231;DHT22;4156;50.908;6.974;2023-12-07T04:54:12;4.30;99.90
8231;DHT22;4156;50.908;6.974;2023-12-07T04:56:40;4.30;99.90
8231;DHT22;4156;50.908;6.974;2023-12-07T04:59:06;4.20;99.90
8231;DHT22;4156;50.908;6.974;2023-12-07T05:01:31;4.30;99.90
8231;DHT22;4156;50.908;6.974;2023-12-07T05:03:57;4.20;99.90
8231;DHT22;4156;50.908;6.974;2023-12-07T05:06:22;4.30;99.90
8231;DHT22;4156;50.908;6.974;2023-12-07T05:08:48;4.30;99.90
8231;DHT22;4156;50.908;6.974;2023-12-07T05:11:13;4.30;99.90
8231;DHT22;4156;50.908;6.974;2023-12-07T05:13:39;4.30;99.90
8231;DHT22;4156;50.908;6.974;2023-12-07T05:16:05;4.30;99.90
8231;DHT22;4156;50.908;6.974;2023-12-07T05:18:31;4.30;99.90
8231;DHT22;4156;50.908;6.974;2023-12-07T05:20:56;4.30;99.90
8231;DHT22;4156;50.908;6.974;2023-12-07T05:23:22;4.20;99.90
8231;DHT22;4156;50.908;6.974;2023-12-07T05:25:47;4.30;99.90
8231;DHT22;4156;50.908;6.974;2023-12-07T05:28:13;4.30;99.90
8231;DHT22;4156;50.908;6.974;2023-12-07T05:30:38;4.30;99.90
8231;DHT22;4156;50.908;6.974;2023-12-07T05:33:04;4.30;99.90
8231;DHT22;4156;50.908;6.974;2023-12-07T05:35:29;4.30;99.90
8231;DHT22;4156;50.908;6.974;2023-12-07T05:37:55;4.20;99.90
8231;DHT22;4156;50.908;6.974;2023-12-07T05:40:20;4.20;99.90
8231;DHT22;4156;50.908;6.974;2023-12-07T05:42:49;4.20;99.90
8231;DHT22;4156;50.908;6.974;2023-12-07T05:45:15;4.20;99.90
8231;DHT22;4156;50.908;6.974;2023-12-07T05:47:41;4.20;99.90
8231;DHT22;4156;50.908;6.974;2023-12-07T05:50:07;4.20;99.90
8231;DHT22;4156;50.908;6.974;2023-12-07T05:52:33;4.20;99.90
8231;DHT22;4156;50.908;6.974;2023-12-07T05:54:58;4.20;99.90
8231;DHT22;4156;50.908;6.974;2023-12-07T05:57:24;4.20;99.90
8231;DHT22;4156;50.908;6.974;2023-12-07T05:59:50;4.20;99.90
8231;DHT22;4156;50.908;6.974;2023-12-07T06:02:15;4.20;99.90
8231;DHT22;4156;50.908;6.974;2023-12-07T06:04:41;4.20;99.90
8231;DHT22;4156;50.908;6.974;2023-12-07T06:07:06;4.10;99.90
8231;DHT22;4156;50.908;6.974;2023-12-07T06:09:32;4.10;99.90
8231;DHT22;4156;50.908;6.974;2023-12-07T06:11:58;4.10;99.90
8231;DHT22;4156;50.908;6.974;2023-12-07T06:14:23;4.10;99.90
8231;DHT22;4156;50.908;6.974;2023-12-07T06:16:49;4.20;99.90
8231;DHT22;4156;50.908;6.974;2023-12-07T06:19:15;4.20;99.90
8231;DHT22;4156;50.908;6.974;2023-12-07T06:21:40;4.10;99.90
8231;DHT22;4156;50.908;6.974;2023-12-07T06:24:06;4.10;99.90
8231;DHT22;4156;50.908;6.974;2023-12-07T06:26:32;4.10;99.90
8231;DHT22;4156;50.908;6.974;2023-12-07T06:28:58;4.10;99.90
8231;DHT22;4156;50.908;6.974;2023-12-07T06:31:23;4.10;99.90
8231;DHT22;4156;50.908;6.974;2023-12-07T06:33:49;4.10;99.90
8231;DHT22;4156;50.908;6.974;2023-12-07T06:36:19;4.20;99.90
8231;DHT22;4156;50.908;6.974;2023-12-07T06:38:46;4.10;99.90
8231;DHT22;4156;50.908;6.974;2023-12-07T06:41:11;4.10;99.90
8231;DHT22;4156;50.908;6.974;2023-12-07T06:43:37;4.00;99.90
8231;DHT22;4156;50.908;6.974;2023-12-07T06:46:02;4.00;99.90
8231;DHT22;4156;50.908;6.974;2023-12-07T06:48:28;4.00;99.90
8231;DHT22;4156;50.908;6.974;2023-12-07T06:50:53;4.00;99.90
8231;DHT22;4156;50.908;6.974;2023-12-07T06:53:19;3.90;99.90
8231;DHT22;4156;50.908;6.974;2023-12-07T06:55:44;3.90;99.90
8231;DHT22;4156;50.908;6.974;2023-12-07T06:58:10;3.90;99.90
8231;DHT22;4156;50.908;6.974;2023-12-07T07:00:36;3.80;99.90
8231;DHT22;4156;50.908;6.974;2023-12-07T07:03:02;3.90;99.90
8231;DHT22;4156;50.908;6.974;2023-12-07T07:05:27;3.90;99.90
8231;DHT22;4156;50.908;6.974;2023-12-07T07:07:53;3.90;99.90
8231;DHT22;4156;50.908;6.974;2023-12-07T07:10:20;3.90;99.90
8231;DHT22;4156;50.908;6.974;2023-12-07T07:12:46;4.00;99.90
8231;DHT22;4156;50.908;6.974;2023-12-07T07:15:11;4.00;99.90
8231;DHT22;4156;50.908;6.974;2023-12-07T07:17:37;4.00;99.90
8231;DHT22;4156;50.908;6.974;2023-12-07T07:20:03;3.90;99.90
8231;DHT22;4156;50.908;6.974;2023-12-07T07:22:29;3.90;99.90
8231;DHT22;4156;50.908;6.974;2023-12-07T07:24:54;3.90;99.90
8231;DHT22;4156;50.908;6.974;2023-12-07T07:27:20;3.80;99.90
8231;DHT22;4156;50.908;6.974;2023-12-07T07:29:45;3.80;99.90
8231;DHT22;4156;50.908;6.974;2023-12-07T07:32:11;3.70;99.90
8231;DHT22;4156;50.908;6.974;2023-12-07T07:34:37;3.70;99.90
8231;DHT22;4156;50.908;6.974;2023-12-07T07:37:02;3.70;99.90
8231;DHT22;4156;50.908;6.974;2023-12-07T07:39:28;3.70;99.90
8231;DHT22;4156;50.908;6.974;2023-12-07T07:41:54;3.70;99.90
8231;DHT22;4156;50.908;6.974;2023-12-07T07:44:19;3.70;99.90
8231;DHT22;4156;50.908;6.974;2023-12-07T07:46:45;3.80;99.90
8231;DHT22;4156;50.908;6.974;2023-12-07T07:49:11;3.70;99.90
8231;DHT22;4156;50.908;6.974;2023-12-07T07:51:37;3.60;99.90
8231;DHT22;4156;50.908;6.974;2023-12-07T07:54:04;3.70;99.90
8231;DHT22;4156;50.908;6.974;2023-12-07T07:56:29;3.70;99.90
8231;DHT22;4156;50.908;6.974;2023-12-07T07:58:55;3.60;99.90
8231;DHT22;4156;50.908;6.974;2023-12-07T08:01:20;3.60;99.90
8231;DHT22;4156;50.908;6.974;2023-12-07T08:03:46;3.60;99.90
8231;DHT22;4156;50.908;6.974;2023-12-07T08:06:12;3.60;99.90
8231;DHT22;4156;50.908;6.974;2023-12-07T08:08:37;3.70;99.90
8231;DHT22;4156;50.908;6.974;2023-12-07T08:11:03;3.60;99.90
8231;DHT22;4156;50.908;6.974;2023-12-07T08:13:30;3.60;99.90
8231;DHT22;4156;50.908;6.974;2023-12-07T08:15:56;3.60;99.90
8231;DHT22;4156;50.908;6.974;2023-12-07T08:18:21;3.60;99.90
8231;DHT22;4156;50.908;6.974;2023-12-07T08:20:47;3.60;99.90
8231;DHT22;4156;50.908;6.974;2023-12-07T08:23:13;3.60;99.90
8231;DHT22;4156;50.908;6.974;2023-12-07T08:25:39;3.60;99.90
8231;DHT22;4156;50.908;6.974;2023-12-07T08:28:05;3.60;99.90
8231;DHT22;4156;50.908;6.974;2023-12-07T08:30:31;3.60;99.90
8231;DHT22;4156;50.908;6.974;2023-12-07T08:32:56;3.60;99.90
8231;DHT22;4156;50.908;6.974;2023-12-07T08:35:22;3.60;99.90
8231;DHT22;4156;50.908;6.974;2023-12-07T08:37:48;3.60;99.90
8231;DHT22;4156;50.908;6.974;2023-12-07T08:40:14;3.60;99.90
8231;DHT22;4156;50.908;6.974;2023-12-07T08:42:41;3.60;99.90
8231;DHT22;4156;50.908;6.974;2023-12-07T08:45:06;3.60;99.90
8231;DHT22;4156;50.908;6.974;2023-12-07T08:47:33;3.60;99.90
8231;DHT22;4156;50.908;6.974;2023-12-07T08:49:58;3.60;99.90
8231;DHT22;4156;50.908;6.974;2023-12-07T08:52:24;3.60;99.90
8231;DHT22;4156;50.908;6.974;2023-12-07T08:54:49;3.60;99.90
8231;DHT22;4156;50.908;6.974;2023-12-07T08:57:17;3.70;99.90
8231;DHT22;4156;50.908;6.974;2023-12-07T08:59:42;3.60;99.90
8231;DHT22;4156;50.908;6.974;2023-12-07T09:02:08;3.60;99.90
8231;DHT22;4156;50.908;6.974;2023-12-07T09:04:33;3.70;99.90
8231;DHT22;4156;50.908;6.974;2023-12-07T09:06:59;3.70;99.90
8231;DHT22;4156;50.908;6.974;2023-12-07T09:09:24;3.60;99.90
8231;DHT22;4156;50.908;6.974;2023-12-07T09:11:51;3.70;99.90
8231;DHT22;4156;50.908;6.974;2023-12-07T09:14:16;3.70;99.90
8231;DHT22;4156;50.908;6.974;2023-12-07T09:16:45;3.70;99.90
8231;DHT22;4156;50.908;6.974;2023-12-07T09:19:12;3.70;99.90
8231;DHT22;4156;50.908;6.974;2023-12-07T09:21:39;3.70;99.90
8231;DHT22;4156;50.908;6.974;2023-12-07T09:24:05;3.70;99.90
8231;DHT22;4156;50.908;6.974;2023-12-07T09:26:32;3.70;99.90
8231;DHT22;4156;50.908;6.974;2023-12-07T09:28:57;3.70;99.90
8231;DHT22;4156;50.908;6.974;2023-12-07T09:31:23;3.80;99.90
8231;DHT22;4156;50.908;6.974;2023-12-07T09:33:48;3.80;99.90
8231;DHT22;4156;50.908;6.974;2023-12-07T09:36:17;3.80;99.90
8231;DHT22;4156;50.908;6.974;2023-12-07T09:38:44;3.80;99.90
8231;DHT22;4156;50.908;6.974;2023-12-07T09:41:09;3.80;99.90
8231;DHT22;4156;50.908;6.974;2023-12-07T09:43:35;3.80;99.90
8231;DHT22;4156;50.908;6.974;2023-12-07T09:46:00;3.80;99.90
8231;DHT22;4156;50.908;6.974;2023-12-07T09:48:26;3.80;99.90
8231;DHT22;4156;50.908;6.974;2023-12-07T09:50:52;3.90;99.90
8231;DHT22;4156;50.908;6.974;2023-12-07T09:53:20;3.80;99.90
8231;DHT22;4156;50.908;6.974;2023-12-07T09:55:46;3.80;99.90
8231;DHT22;4156;50.908;6.974;2023-12-07T09:58:12;3.80;99.90
8231;DHT22;4156;50.908;6.974;2023-12-07T10:00:38;3.80;99.90
8231;DHT22;4156;50.908;6.974;2023-12-07T10:03:05;3.80;99.90
8231;DHT22;4156;50.908;6.974;2023-12-07T10:05:33;3.90;99.90
8231;DHT22;4156;50.908;6.974;2023-12-07T10:07:59;3.90;99.90
8231;DHT22;4156;50.908;6.974;2023-12-07T10:10:32;3.90;99.90
8231;DHT22;4156;50.908;6.974;2023-12-07T10:13:02;3.90;99.90
8231;DHT22;4156;50.908;6.974;2023-12-07T10:15:33;3.90;99.90
8231;DHT22;4156;50.908;6.974;2023-12-07T10:18:00;3.90;99.90
8231;DHT22;4156;50.908;6.974;2023-12-07T10:20:39;3.90;99.90
8231;DHT22;4156;50.908;6.974;2023-12-07T10:23:27;4.00;99.90
8231;DHT22;4156;50.908;6.974;2023-12-07T10:27:07;4.00;99.90
8231;DHT22;4156;50.908;6.974;2023-12-07T10:30:40;3.90;99.90
8231;DHT22;4156;50.908;6.974;2023-12-07T10:33:50;4.00;99.90
8231;DHT22;4156;50.908;6.974;2023-12-07T10:36:48;4.00;99.90
8231;DHT22;4156;50.908;6.974;2023-12-07T10:39:55;4.00;99.90
8231;DHT22;4156;50.908;6.974;2023-12-07T10:42:56;4.00;99.90
8231;DHT22;4156;50.908;6.974;2023-12-07T10:45:38;3.90;99.90
8231;DHT22;4156;50.908;6.974;2023-12-07T10:48:36;3.90;99.90
8231;DHT22;4156;50.908;6.974;2023-12-07T10:51:58;3.90;99.90
8231;DHT22;4156;50.908;6.974;2023-12-07T10:54:50;3.90;99.90
8231;DHT22;4156;50.908;6.974;2023-12-07T10:57:32;3.90;99.90
8231;DHT22;4156;50.908;6.974;2023-12-07T11:00:30;3.90;99.90
8231;DHT22;4156;50.908;6.974;2023-12-07T11:03:08;4.00;99.90
8231;DHT22;4156;50.908;6.974;2023-12-07T11:05:40;4.00;99.90
8231;DHT22;4156;50.908;6.974;2023-12-07T11:08:59;4.00;99.90
8231;DHT22;4156;50.908;6.974;2023-12-07T11:12:09;4.00;99.90
8231;DHT22;4156;50.908;6.974;2023-12-07T11:14:50;4.00;99.90
8231;DHT22;4156;50.908;6.974;2023-12-07T11:17:50;4.10;99.90
8231;DHT22;4156;50.908;6.974;2023-12-07T11:21:22;4.00;99.90
8231;DHT22;4156;50.908;6.974;2023-12-07T11:24:53;4.00;99.90
8231;DHT22;4156;50.908;6.974;2023-12-07T11:27:59;4.10;99.90
8231;DHT22;4156;50.908;6.974;2023-12-07T11:30:56;4.10;99.90
8231;DHT22;4156;50.908;6.974;2023-12-07T11:33:24;4.10;99.90
8231;DHT22;4156;50.908;6.974;2023-12-07T11:36:11;4.10;99.90
8231;DHT22;4156;50.908;6.974;2023-12-07T11:41:49;4.20;99.90
8231;DHT22;4156;50.908;6.974;2023-12-07T11:44:49;4.20;99.90
8231;DHT22;4156;50.908;6.974;2023-12-07T11:47:37;4.20;99.90
8231;DHT22;4156;50.908;6.974;2023-12-07T11:50:57;4.20;99.90
8231;DHT22;4156;50.908;6.974;2023-12-07T11:53:43;4.30;99.90
8231;DHT22;4156;50.908;6.974;2023-12-07T11:56:11;4.30;99.90
8231;DHT22;4156;50.908;6.974;2023-12-07T11:58:51;4.20;99.90
8231;DHT22;4156;50.908;6.974;2023-12-07T12:01:36;4.30;99.90
8231;DHT22;4156;50.908;6.974;2023-12-07T12:04:10;4.30;99.90
8231;DHT22;4156;50.908;6.974;2023-12-07T12:06:47;4.30;99.90
8231;DHT22;4156;50.908;6.974;2023-12-07T12:09:42;4.30;99.90
8231;DHT22;4156;50.908;6.974;2023-12-07T12:12:35;4.30;99.90
8231;DHT22;4156;50.908;6.974;2023-12-07T12:15:51;4.30;99.90
8231;DHT22;4156;50.908;6.974;2023-12-07T12:18:18;4.30;99.90
8231;DHT22;4156;50.908;6.974;2023-12-07T12:20:57;4.30;99.90
8231;DHT22;4156;50.908;6.974;2023-12-07T12:23:34;4.30;99.90
8231;DHT22;4156;50.908;6.974;2023-12-07T12:26:06;4.30;99.90
8231;DHT22;4156;50.908;6.974;2023-12-07T12:28:56;4.30;99.90
8231;DHT22;4156;50.908;6.974;2023-12-07T12:31:43;4.30;99.90
8231;DHT22;4156;50.908;6.974;2023-12-07T12:34:10;4.30;99.90
8231;DHT22;4156;50.908;6.974;2023-12-07T12:36:39;4.30;99.90
8231;DHT22;4156;50.908;6.974;2023-12-07T12:39:05;4.30;99.90
8231;DHT22;4156;50.908;6.974;2023-12-07T12:41:33;4.30;99.90
8231;DHT22;4156;50.908;6.974;2023-12-07T12:43:59;4.30;99.90
8231;DHT22;4156;50.908;6.974;2023-12-07T12:46:25;4.30;99.90
8231;DHT22;4156;50.908;6.974;2023-12-07T12:48:58;4.40;99.90
8231;DHT22;4156;50.908;6.974;2023-12-07T12:51:28;4.40;99.90
8231;DHT22;4156;50.908;6.974;2023-12-07T12:53:56;4.40;99.90
8231;DHT22;4156;50.908;6.974;2023-12-07T12:56:22;4.40;99.90
8231;DHT22;4156;50.908;6.974;2023-12-07T12:58:52;4.40;99.90
8231;DHT22;4156;50.908;6.974;2023-12-07T13:01:18;4.40;99.90
8231;DHT22;4156;50.908;6.974;2023-12-07T13:03:44;4.40;99.90
8231;DHT22;4156;50.908;6.974;2023-12-07T13:06:11;4.40;99.90
8231;DHT22;4156;50.908;6.974;2023-12-07T13:08:37;4.50;99.90
8231;DHT22;4156;50.908;6.974;2023-12-07T13:11:03;4.50;99.90
8231;DHT22;4156;50.908;6.974;2023-12-07T13:13:28;4.50;99.90
8231;DHT22;4156;50.908;6.974;2023-12-07T13:15:55;4.50;99.90
8231;DHT22;4156;50.908;6.974;2023-12-07T13:18:20;4.50;99.90
8231;DHT22;4156;50.908;6.974;2023-12-07T13:20:46;4.50;99.90
8231;DHT22;4156;50.908;6.974;2023-12-07T13:23:11;4.50;99.90
8231;DHT22;4156;50.908;6.974;2023-12-07T13:25:37;4.50;99.90
8231;DHT22;4156;50.908;6.974;2023-12-07T13:28:02;4.50;99.90
8231;DHT22;4156;50.908;6.974;2023-12-07T13:30:28;4.50;99.90
8231;DHT22;4156;50.908;6.974;2023-12-07T13:32:55;4.50;99.90
8231;DHT22;4156;50.908;6.974;2023-12-07T13:35:20;4.50;99.90
8231;DHT22;4156;50.908;6.974;2023-12-07T13:37:46;4.60;99.90
8231;DHT22;4156;50.908;6.974;2023-12-07T13:40:13;4.60;99.90
8231;DHT22;4156;50.908;6.974;2023-12-07T13:42:40;4.60;99.90
8231;DHT22;4156;50.908;6.974;2023-12-07T13:45:06;4.60;99.90
8231;DHT22;4156;50.908;6.974;2023-12-07T13:47:33;4.60;99.90
8231;DHT22;4156;50.908;6.974;2023-12-07T13:50:02;4.60;99.90
8231;DHT22;4156;50.908;6.974;2023-12-07T13:52:29;4.60;99.90
8231;DHT22;4156;50.908;6.974;2023-12-07T13:54:55;4.60;99.90
8231;DHT22;4156;50.908;6.974;2023-12-07T13:57:21;4.60;99.90
8231;DHT22;4156;50.908;6.974;2023-12-07T13:59:50;4.60;99.90
8231;DHT22;4156;50.908;6.974;2023-12-07T14:02:16;4.60;99.90
8231;DHT22;4156;50.908;6.974;2023-12-07T14:04:41;4.60;99.90
8231;DHT22;4156;50.908;6.974;2023-12-07T14:07:08;4.60;99.90
8231;DHT22;4156;50.908;6.974;2023-12-07T14:09:35;4.60;99.90
8231;DHT22;4156;50.908;6.974;2023-12-07T14:12:01;4.60;99.90
8231;DHT22;4156;50.908;6.974;2023-12-07T14:14:27;4.60;99.90
8231;DHT22;4156;50.908;6.974;2023-12-07T14:16:53;4.60;99.90
8231;DHT22;4156;50.908;6.974;2023-12-07T14:19:19;4.60;99.90
8231;DHT22;4156;50.908;6.974;2023-12-07T14:21:45;4.70;99.90
8231;DHT22;4156;50.908;6.974;2023-12-07T14:24:10;4.70;99.90
8231;DHT22;4156;50.908;6.974;2023-12-07T14:26:36;4.70;99.90
8231;DHT22;4156;50.908;6.974;2023-12-07T14:29:02;4.70;99.90
8231;DHT22;4156;50.908;6.974;2023-12-07T14:31:27;4.70;99.90
8231;DHT22;4156;50.908;6.974;2023-12-07T14:33:52;4.70;99.90
8231;DHT22;4156;50.908;6.974;2023-12-07T14:36:18;4.70;99.90
8231;DHT22;4156;50.908;6.974;2023-12-07T14:38:45;4.70;99.90
8231;DHT22;4156;50.908;6.974;2023-12-07T14:41:10;4.70;99.90
8231;DHT22;4156;50.908;6.974;2023-12-07T14:43:38;4.60;99.90
8231;DHT22;4156;50.908;6.974;2023-12-07T14:46:05;4.60;99.90
8231;DHT22;4156;50.908;6.974;2023-12-07T14:48:32;4.60;99.90
8231;DHT22;4156;50.908;6.974;2023-12-07T14:50:58;4.60;99.90
8231;DHT22;4156;50.908;6.974;2023-12-07T14:53:24;4.60;99.90
8231;DHT22;4156;50.908;6.974;2023-12-07T14:55:51;4.70;99.90
8231;DHT22;4156;50.908;6.974;2023-12-07T14:58:17;4.70;99.90
8231;DHT22;4156;50.908;6.974;2023-12-07T15:00:42;4.70;99.90
8231;DHT22;4156;50.908;6.974;2023-12-07T15:03:08;4.70;99.90
8231;DHT22;4156;50.908;6.974;2023-12-07T15:05:33;4.60;99.90
8231;DHT22;4156;50.908;6.974;2023-12-07T15:07:59;4.60;99.90
8231;DHT22;4156;50.908;6.974;2023-12-07T15:10:24;4.70;99.90
8231;DHT22;4156;50.908;6.974;2023-12-07T15:12:50;4.60;99.90
8231;DHT22;4156;50.908;6.974;2023-12-07T15:15:16;4.60;99.90
8231;DHT22;4156;50.908;6.974;2023-12-07T15:17:42;4.60;99.90
8231;DHT22;4156;50.908;6.974;2023-12-07T15:20:08;4.60;99.90
8231;DHT22;4156;50.908;6.974;2023-12-07T15:22:34;4.60;99.90
8231;DHT22;4156;50.908;6.974;2023-12-07T15:24:59;4.60;99.90
8231;DHT22;4156;50.908;6.974;2023-12-07T15:27:25;4.60;99.90
8231;DHT22;4156;50.908;6.974;2023-12-07T15:29:51;4.60;99.90
8231;DHT22;4156;50.908;6.974;2023-12-07T15:32:17;4.60;99.90
8231;DHT22;4156;50.908;6.974;2023-12-07T15:34:42;4.50;99.90
8231;DHT22;4156;50.908;6.974;2023-12-07T15:37:08;4.50;99.90
8231;DHT22;4156;50.908;6.974;2023-12-07T15:39:37;4.50;99.90
8231;DHT22;4156;50.908;6.974;2023-12-07T15:42:04;4.50;99.90
8231;DHT22;4156;50.908;6.974;2023-12-07T15:44:29;4.50;99.90
8231;DHT22;4156;50.908;6.974;2023-12-07T15:46:55;4.50;99.90
8231;DHT22;4156;50.908;6.974;2023-12-07T15:49:20;4.50;99.90
8231;DHT22;4156;50.908;6.974;2023-12-07T15:51:47;4.50;99.90
8231;DHT22;4156;50.908;6.974;2023-12-07T15:54:13;4.50;99.90
8231;DHT22;4156;50.908;6.974;2023-12-07T15:56:41;4.50;99.90
8231;DHT22;4156;50.908;6.974;2023-12-07T15:59:07;4.50;99.90
8231;DHT22;4156;50.908;6.974;2023-12-07T16:01:33;4.50;99.90
8231;DHT22;4156;50.908;6.974;2023-12-07T16:03:59;4.50;99.90
8231;DHT22;4156;50.908;6.974;2023-12-07T16:06:24;4.50;99.90
8231;DHT22;4156;50.908;6.974;2023-12-07T16:08:50;4.50;99.90
8231;DHT22;4156;50.908;6.974;2023-12-07T16:11:15;4.50;99.90
8231;DHT22;4156;50.908;6.974;2023-12-07T16:13:41;4.50;99.90
8231;DHT22;4156;50.908;6.974;2023-12-07T16:16:06;4.40;99.90
8231;DHT22;4156;50.908;6.974;2023-12-07T16:18:32;4.40;99.90
8231;DHT22;4156;50.908;6.974;2023-12-07T16:20:57;4.30;99.90
8231;DHT22;4156;50.908;6.974;2023-12-07T16:23:23;4.30;99.90
8231;DHT22;4156;50.908;6.974;2023-12-07T16:25:48;4.30;99.90
8231;DHT22;4156;50.908;6.974;2023-12-07T16:28:14;4.30;99.90
8231;DHT22;4156;50.908;6.974;2023-12-07T16:30:40;4.30;99.90
8231;DHT22;4156;50.908;6.974;2023-12-07T16:33:05;4.20;99.90